Hovedside
METAR-TAF:

METAR-TAF

Lufthavner :

Karlstad lufthavn

Karlstad, Sverige

breddegrad: 59-26-41N, lengdegrad: 013-20-15E, høyde over havet: 107 m

Gjeldene værobservasjon

Denne rapporten ble laget for 22 minutter siden, klokken 03:50 UTC
Vind 6 kt fra Vest
Temperatur 8°C
Luftfuktighet 71%
Trykk 1011 hPa
Sikt 10 km eller mer
ingen skyer under 1500 m og ingen bygeskyer

METAR: ESOK 230350Z 28006KT CAVOK 08/03 Q1011

Tid: 06:12 (04:12 UTC)

Varsel

Denne rapporten ble laget for 1 time og 42 minutter siden, klokken 02:30 UTC
Varsel gyldig fra 23. klokken 03 UTC til 23. klokken 06 UTC
Vind 6 kt fra Vest-nordvest
Sikt 10 km eller mer
ingen skyer under 1500 m og ingen bygeskyer

TAF: ESOK 230230Z 2303/2306 30006KT CAVOK

Værobservasjoner og værvarsel for over 4000 flyplasser (METAR- og TAF-rapporter).

Tilgjengelige stasjoner er representert av de røde og gule prikkene på kartet.

Hold musepekeren over prikken for å se navnet på stasjonen.

Klikk så for å se værobservasjoner og -varsler.

For å forandre kartet kan du klikke på den grønne knappen med svart kryss for å zoome inn, på den grønne knappen med strek for å zoome ut, eller på de grønne pilene for å se tilstøtende kart.


METAR-TAF: